sensor_id;sensor_type;location;lat;lon;timestamp;P1;durP1;ratioP1;P2;durP2;ratioP2
12631;SDS011;6381;45.748;12.106;2023-01-20T00:02:23;4.10;;;3.73;;
12631;SDS011;6381;45.748;12.106;2023-01-20T00:04:52;3.47;;;3.17;;
12631;SDS011;6381;45.748;12.106;2023-01-20T00:07:21;4.20;;;3.57;;
12631;SDS011;6381;45.748;12.106;2023-01-20T00:10:09;5.27;;;3.87;;
12631;SDS011;6381;45.748;12.106;2023-01-20T00:15:44;4.90;;;4.20;;
12631;SDS011;6381;45.748;12.106;2023-01-20T00:18:15;4.20;;;3.80;;
12631;SDS011;6381;45.748;12.106;2023-01-20T00:20:44;4.67;;;4.27;;
12631;SDS011;6381;45.748;12.106;2023-01-20T00:23:13;4.60;;;4.20;;
12631;SDS011;6381;45.748;12.106;2023-01-20T00:28:31;4.40;;;4.00;;
12631;SDS011;6381;45.748;12.106;2023-01-20T00:31:10;5.47;;;4.63;;
12631;SDS011;6381;45.748;12.106;2023-01-20T00:33:42;4.83;;;4.37;;
12631;SDS011;6381;45.748;12.106;2023-01-20T00:36:30;4.20;;;3.80;;
12631;SDS011;6381;45.748;12.106;2023-01-20T00:39:00;4.30;;;3.90;;
12631;SDS011;6381;45.748;12.106;2023-01-20T00:41:29;3.87;;;3.47;;
12631;SDS011;6381;45.748;12.106;2023-01-20T00:43:58;3.87;;;3.37;;
12631;SDS011;6381;45.748;12.106;2023-01-20T00:47:02;2.90;;;2.70;;
12631;SDS011;6381;45.748;12.106;2023-01-20T00:49:34;3.30;;;3.00;;
12631;SDS011;6381;45.748;12.106;2023-01-20T00:52:03;2.70;;;2.50;;
12631;SDS011;6381;45.748;12.106;2023-01-20T00:55:08;3.20;;;2.80;;
12631;SDS011;6381;45.748;12.106;2023-01-20T00:57:54;3.00;;;2.70;;
12631;SDS011;6381;45.748;12.106;2023-01-20T01:00:23;3.07;;;2.87;;
12631;SDS011;6381;45.748;12.106;2023-01-20T01:03:09;3.37;;;3.07;;
12631;SDS011;6381;45.748;12.106;2023-01-20T01:06:15;3.67;;;2.93;;
12631;SDS011;6381;45.748;12.106;2023-01-20T01:08:44;2.73;;;2.40;;
12631;SDS011;6381;45.748;12.106;2023-01-20T01:11:13;2.80;;;2.47;;
12631;SDS011;6381;45.748;12.106;2023-01-20T01:13:42;2.80;;;2.60;;
12631;SDS011;6381;45.748;12.106;2023-01-20T01:16:47;3.47;;;3.20;;
12631;SDS011;6381;45.748;12.106;2023-01-20T01:19:16;3.70;;;3.40;;
12631;SDS011;6381;45.748;12.106;2023-01-20T01:21:49;3.70;;;3.40;;
12631;SDS011;6381;45.748;12.106;2023-01-20T01:24:38;3.50;;;3.30;;
12631;SDS011;6381;45.748;12.106;2023-01-20T01:27:09;3.90;;;3.60;;
12631;SDS011;6381;45.748;12.106;2023-01-20T01:29:57;4.80;;;4.40;;
12631;SDS011;6381;45.748;12.106;2023-01-20T01:32:44;5.47;;;5.07;;
12631;SDS011;6381;45.748;12.106;2023-01-20T01:35:13;4.80;;;4.40;;
12631;SDS011;6381;45.748;12.106;2023-01-20T01:38:01;3.83;;;3.53;;
12631;SDS011;6381;45.748;12.106;2023-01-20T01:40:32;4.10;;;3.80;;
12631;SDS011;6381;45.748;12.106;2023-01-20T01:43:20;3.97;;;3.67;;
12631;SDS011;6381;45.748;12.106;2023-01-20T01:46:07;4.00;;;3.70;;
12631;SDS011;6381;45.748;12.106;2023-01-20T01:48:37;4.17;;;3.87;;
12631;SDS011;6381;45.748;12.106;2023-01-20T01:51:11;3.47;;;3.03;;
12631;SDS011;6381;45.748;12.106;2023-01-20T01:54:03;3.30;;;3.10;;
12631;SDS011;6381;45.748;12.106;2023-01-20T01:56:35;3.10;;;2.90;;
12631;SDS011;6381;45.748;12.106;2023-01-20T01:59:05;3.23;;;3.03;;
12631;SDS011;6381;45.748;12.106;2023-01-20T02:01:54;3.13;;;2.93;;
12631;SDS011;6381;45.748;12.106;2023-01-20T02:04:47;3.30;;;3.10;;
12631;SDS011;6381;45.748;12.106;2023-01-20T02:07:34;3.23;;;3.03;;
12631;SDS011;6381;45.748;12.106;2023-01-20T02:10:06;3.40;;;3.20;;
12631;SDS011;6381;45.748;12.106;2023-01-20T02:12:37;3.53;;;3.23;;
12631;SDS011;6381;45.748;12.106;2023-01-20T02:15:08;3.30;;;3.00;;
12631;SDS011;6381;45.748;12.106;2023-01-20T02:20:49;3.60;;;3.40;;
12631;SDS011;6381;45.748;12.106;2023-01-20T02:23:48;3.33;;;3.13;;
12631;SDS011;6381;45.748;12.106;2023-01-20T02:38:14;3.50;;;3.30;;
12631;SDS011;6381;45.748;12.106;2023-01-20T02:44:24;3.50;;;3.30;;
12631;SDS011;6381;45.748;12.106;2023-01-20T02:49:53;3.30;;;3.10;;
12631;SDS011;6381;45.748;12.106;2023-01-20T02:52:25;3.40;;;3.10;;
12631;SDS011;6381;45.748;12.106;2023-01-20T02:55:16;3.40;;;3.10;;
12631;SDS011;6381;45.748;12.106;2023-01-20T03:01:16;3.30;;;3.10;;
12631;SDS011;6381;45.748;12.106;2023-01-20T03:04:07;3.33;;;3.13;;
12631;SDS011;6381;45.748;12.106;2023-01-20T03:09:28;4.23;;;3.93;;
12631;SDS011;6381;45.748;12.106;2023-01-20T03:14:51;4.80;;;4.40;;
12631;SDS011;6381;45.748;12.106;2023-01-20T03:17:38;4.60;;;4.20;;
12631;SDS011;6381;45.748;12.106;2023-01-20T03:20:07;4.53;;;4.13;;
12631;SDS011;6381;45.748;12.106;2023-01-20T03:22:38;4.10;;;3.80;;
12631;SDS011;6381;45.748;12.106;2023-01-20T03:25:24;4.40;;;4.10;;
12631;SDS011;6381;45.748;12.106;2023-01-20T03:27:53;4.37;;;4.07;;
12631;SDS011;6381;45.748;12.106;2023-01-20T03:30:22;4.43;;;4.07;;
12631;SDS011;6381;45.748;12.106;2023-01-20T03:33:09;4.23;;;3.93;;
12631;SDS011;6381;45.748;12.106;2023-01-20T03:35:56;5.00;;;4.50;;
12631;SDS011;6381;45.748;12.106;2023-01-20T03:41:16;4.60;;;4.20;;
12631;SDS011;6381;45.748;12.106;2023-01-20T03:47:01;3.97;;;3.67;;
12631;SDS011;6381;45.748;12.106;2023-01-20T03:49:54;4.10;;;3.80;;
12631;SDS011;6381;45.748;12.106;2023-01-20T03:52:50;3.90;;;3.60;;
12631;SDS011;6381;45.748;12.106;2023-01-20T03:55:23;3.90;;;3.60;;
12631;SDS011;6381;45.748;12.106;2023-01-20T03:58:15;3.87;;;3.57;;
12631;SDS011;6381;45.748;12.106;2023-01-20T04:00:47;3.80;;;3.50;;
12631;SDS011;6381;45.748;12.106;2023-01-20T04:03:19;3.73;;;3.43;;
12631;SDS011;6381;45.748;12.106;2023-01-20T04:05:53;3.33;;;3.13;;
12631;SDS011;6381;45.748;12.106;2023-01-20T04:08:42;3.20;;;3.00;;
12631;SDS011;6381;45.748;12.106;2023-01-20T04:11:16;3.30;;;3.10;;
12631;SDS011;6381;45.748;12.106;2023-01-20T04:13:45;3.60;;;3.30;;
12631;SDS011;6381;45.748;12.106;2023-01-20T04:16:35;3.20;;;3.00;;
12631;SDS011;6381;45.748;12.106;2023-01-20T04:19:04;3.00;;;2.80;;
12631;SDS011;6381;45.748;12.106;2023-01-20T04:21:33;3.13;;;2.93;;
12631;SDS011;6381;45.748;12.106;2023-01-20T04:24:40;3.67;;;3.03;;
12631;SDS011;6381;45.748;12.106;2023-01-20T04:27:15;3.27;;;3.07;;
12631;SDS011;6381;45.748;12.106;2023-01-20T04:30:01;3.60;;;3.30;;
12631;SDS011;6381;45.748;12.106;2023-01-20T04:35:18;3.30;;;3.10;;
12631;SDS011;6381;45.748;12.106;2023-01-20T04:37:47;3.80;;;3.50;;
12631;SDS011;6381;45.748;12.106;2023-01-20T04:40:18;3.90;;;3.60;;
12631;SDS011;6381;45.748;12.106;2023-01-20T04:42:48;3.63;;;3.33;;
12631;SDS011;6381;45.748;12.106;2023-01-20T04:45:17;3.30;;;3.10;;
12631;SDS011;6381;45.748;12.106;2023-01-20T04:47:46;3.93;;;3.63;;
12631;SDS011;6381;45.748;12.106;2023-01-20T04:50:15;4.27;;;3.87;;
12631;SDS011;6381;45.748;12.106;2023-01-20T04:53:02;4.03;;;3.73;;
12631;SDS011;6381;45.748;12.106;2023-01-20T04:55:31;4.20;;;3.90;;
12631;SDS011;6381;45.748;12.106;2023-01-20T04:58:55;4.40;;;4.10;;
12631;SDS011;6381;45.748;12.106;2023-01-20T05:01:43;4.10;;;3.80;;
12631;SDS011;6381;45.748;12.106;2023-01-20T05:04:29;4.10;;;3.80;;
12631;SDS011;6381;45.748;12.106;2023-01-20T05:06:58;4.30;;;4.00;;
12631;SDS011;6381;45.748;12.106;2023-01-20T05:09:26;4.30;;;4.00;;
12631;SDS011;6381;45.748;12.106;2023-01-20T05:12:34;4.60;;;4.20;;
12631;SDS011;6381;45.748;12.106;2023-01-20T05:17:52;4.13;;;3.83;;
12631;SDS011;6381;45.748;12.106;2023-01-20T05:23:11;6.70;;;6.20;;
12631;SDS011;6381;45.748;12.106;2023-01-20T05:25:58;5.97;;;5.47;;
12631;SDS011;6381;45.748;12.106;2023-01-20T05:31:41;6.00;;;5.50;;
12631;SDS011;6381;45.748;12.106;2023-01-20T05:34:10;5.57;;;5.17;;
12631;SDS011;6381;45.748;12.106;2023-01-20T05:39:47;5.03;;;4.67;;
12631;SDS011;6381;45.748;12.106;2023-01-20T05:42:16;5.40;;;4.90;;
12631;SDS011;6381;45.748;12.106;2023-01-20T05:44:45;5.37;;;4.93;;
12631;SDS011;6381;45.748;12.106;2023-01-20T05:47:15;5.60;;;5.20;;
12631;SDS011;6381;45.748;12.106;2023-01-20T05:50:24;7.13;;;6.53;;
12631;SDS011;6381;45.748;12.106;2023-01-20T05:52:54;6.00;;;5.40;;
12631;SDS011;6381;45.748;12.106;2023-01-20T05:55:23;7.30;;;6.70;;
12631;SDS011;6381;45.748;12.106;2023-01-20T05:58:10;5.63;;;5.23;;
12631;SDS011;6381;45.748;12.106;2023-01-20T06:01:14;5.40;;;4.90;;
12631;SDS011;6381;45.748;12.106;2023-01-20T06:03:45;5.60;;;5.10;;
12631;SDS011;6381;45.748;12.106;2023-01-20T06:06:14;5.40;;;4.90;;
12631;SDS011;6381;45.748;12.106;2023-01-20T06:11:33;5.00;;;4.60;;
12631;SDS011;6381;45.748;12.106;2023-01-20T06:14:02;5.17;;;4.77;;
12631;SDS011;6381;45.748;12.106;2023-01-20T06:16:31;5.37;;;4.97;;
12631;SDS011;6381;45.748;12.106;2023-01-20T06:19:18;5.17;;;4.77;;
12631;SDS011;6381;45.748;12.106;2023-01-20T06:21:47;4.77;;;4.40;;
12631;SDS011;6381;45.748;12.106;2023-01-20T06:24:16;4.83;;;4.43;;
12631;SDS011;6381;45.748;12.106;2023-01-20T06:26:45;4.70;;;4.30;;
12631;SDS011;6381;45.748;12.106;2023-01-20T06:29:33;5.30;;;4.90;;
12631;SDS011;6381;45.748;12.106;2023-01-20T06:34:51;4.93;;;4.53;;
12631;SDS011;6381;45.748;12.106;2023-01-20T06:40:30;8.47;;;6.53;;
12631;SDS011;6381;45.748;12.106;2023-01-20T06:42:59;24.97;;;22.20;;
12631;SDS011;6381;45.748;12.106;2023-01-20T06:45:28;31.43;;;27.77;;
12631;SDS011;6381;45.748;12.106;2023-01-20T06:51:28;11.33;;;10.33;;
12631;SDS011;6381;45.748;12.106;2023-01-20T06:54:18;9.00;;;8.17;;
12631;SDS011;6381;45.748;12.106;2023-01-20T07:02:40;9.73;;;8.83;;
12631;SDS011;6381;45.748;12.106;2023-01-20T07:05:09;9.87;;;8.97;;
12631;SDS011;6381;45.748;12.106;2023-01-20T07:10:46;7.90;;;7.20;;
12631;SDS011;6381;45.748;12.106;2023-01-20T07:13:32;8.80;;;8.00;;
12631;SDS011;6381;45.748;12.106;2023-01-20T07:16:01;8.63;;;7.83;;
12631;SDS011;6381;45.748;12.106;2023-01-20T07:30:54;10.30;;;7.57;;
12631;SDS011;6381;45.748;12.106;2023-01-20T07:33:40;11.17;;;7.60;;
12631;SDS011;6381;45.748;12.106;2023-01-20T07:36:29;7.60;;;6.90;;
12631;SDS011;6381;45.748;12.106;2023-01-20T07:39:16;7.43;;;6.60;;
12631;SDS011;6381;45.748;12.106;2023-01-20T07:42:02;6.37;;;5.77;;
12631;SDS011;6381;45.748;12.106;2023-01-20T07:47:39;6.43;;;5.83;;
12631;SDS011;6381;45.748;12.106;2023-01-20T07:50:08;6.13;;;5.53;;
12631;SDS011;6381;45.748;12.106;2023-01-20T07:52:37;7.90;;;7.20;;
12631;SDS011;6381;45.748;12.106;2023-01-20T07:57:53;6.67;;;6.10;;
12631;SDS011;6381;45.748;12.106;2023-01-20T08:03:15;7.40;;;6.23;;
12631;SDS011;6381;45.748;12.106;2023-01-20T08:05:44;6.87;;;6.27;;
12631;SDS011;6381;45.748;12.106;2023-01-20T08:08:30;6.97;;;6.33;;
12631;SDS011;6381;45.748;12.106;2023-01-20T08:11:18;8.73;;;6.47;;
12631;SDS011;6381;45.748;12.106;2023-01-20T08:13:48;9.50;;;6.90;;
12631;SDS011;6381;45.748;12.106;2023-01-20T08:16:17;6.70;;;6.10;;
12631;SDS011;6381;45.748;12.106;2023-01-20T08:19:06;7.30;;;6.70;;
12631;SDS011;6381;45.748;12.106;2023-01-20T08:21:35;7.40;;;6.77;;
12631;SDS011;6381;45.748;12.106;2023-01-20T08:24:22;8.30;;;7.60;;
12631;SDS011;6381;45.748;12.106;2023-01-20T08:29:39;8.47;;;7.77;;
12631;SDS011;6381;45.748;12.106;2023-01-20T08:32:07;7.97;;;7.27;;
12631;SDS011;6381;45.748;12.106;2023-01-20T08:34:56;8.23;;;7.43;;
12631;SDS011;6381;45.748;12.106;2023-01-20T08:37:25;7.97;;;7.27;;
12631;SDS011;6381;45.748;12.106;2023-01-20T08:46:24;8.80;;;7.50;;
12631;SDS011;6381;45.748;12.106;2023-01-20T08:48:54;9.83;;;8.83;;
12631;SDS011;6381;45.748;12.106;2023-01-20T08:51:25;9.10;;;8.00;;
12631;SDS011;6381;45.748;12.106;2023-01-20T08:53:55;9.13;;;7.00;;
12631;SDS011;6381;45.748;12.106;2023-01-20T08:56:24;9.90;;;7.37;;
12631;SDS011;6381;45.748;12.106;2023-01-20T08:59:48;7.00;;;6.40;;
12631;SDS011;6381;45.748;12.106;2023-01-20T09:02:17;7.77;;;7.07;;
12631;SDS011;6381;45.748;12.106;2023-01-20T09:04:46;7.63;;;6.90;;
12631;SDS011;6381;45.748;12.106;2023-01-20T09:07:52;12.17;;;9.27;;
12631;SDS011;6381;45.748;12.106;2023-01-20T09:16:37;13.47;;;11.50;;
12631;SDS011;6381;45.748;12.106;2023-01-20T09:19:23;13.03;;;11.30;;
12631;SDS011;6381;45.748;12.106;2023-01-20T09:24:57;13.27;;;11.87;;
12631;SDS011;6381;45.748;12.106;2023-01-20T09:27:45;12.57;;;10.70;;
12631;SDS011;6381;45.748;12.106;2023-01-20T09:30:14;11.70;;;9.03;;
12631;SDS011;6381;45.748;12.106;2023-01-20T09:39:09;7.10;;;6.40;;
12631;SDS011;6381;45.748;12.106;2023-01-20T09:42:02;7.83;;;6.40;;
12631;SDS011;6381;45.748;12.106;2023-01-20T09:45:03;7.53;;;6.50;;
12631;SDS011;6381;45.748;12.106;2023-01-20T09:47:48;6.87;;;6.27;;
12631;SDS011;6381;45.748;12.106;2023-01-20T09:53:41;7.10;;;6.50;;
12631;SDS011;6381;45.748;12.106;2023-01-20T09:56:30;7.13;;;6.53;;
12631;SDS011;6381;45.748;12.106;2023-01-20T09:59:25;7.27;;;6.17;;
12631;SDS011;6381;45.748;12.106;2023-01-20T10:01:57;7.13;;;6.20;;
12631;SDS011;6381;45.748;12.106;2023-01-20T10:04:31;8.17;;;7.37;;
12631;SDS011;6381;45.748;12.106;2023-01-20T10:10:36;8.10;;;7.27;;
12631;SDS011;6381;45.748;12.106;2023-01-20T10:13:12;12.77;;;7.63;;
12631;SDS011;6381;45.748;12.106;2023-01-20T10:15:51;7.83;;;7.03;;
12631;SDS011;6381;45.748;12.106;2023-01-20T10:21:30;7.17;;;6.47;;
12631;SDS011;6381;45.748;12.106;2023-01-20T10:27:08;7.40;;;6.70;;
12631;SDS011;6381;45.748;12.106;2023-01-20T10:29:38;6.97;;;6.13;;
12631;SDS011;6381;45.748;12.106;2023-01-20T10:32:31;6.63;;;5.77;;
12631;SDS011;6381;45.748;12.106;2023-01-20T10:35:06;5.30;;;4.90;;
12631;SDS011;6381;45.748;12.106;2023-01-20T10:37:41;6.30;;;5.70;;
12631;SDS011;6381;45.748;12.106;2023-01-20T10:40:30;8.00;;;5.40;;
12631;SDS011;6381;45.748;12.106;2023-01-20T10:43:05;6.93;;;6.33;;
12631;SDS011;6381;45.748;12.106;2023-01-20T10:45:44;6.10;;;5.50;;
12631;SDS011;6381;45.748;12.106;2023-01-20T10:48:26;5.30;;;4.80;;
12631;SDS011;6381;45.748;12.106;2023-01-20T10:54:08;5.70;;;5.20;;
12631;SDS011;6381;45.748;12.106;2023-01-20T10:56:44;5.70;;;5.20;;
12631;SDS011;6381;45.748;12.106;2023-01-20T10:59:21;6.10;;;4.50;;
12631;SDS011;6381;45.748;12.106;2023-01-20T11:07:52;5.00;;;4.60;;
12631;SDS011;6381;45.748;12.106;2023-01-20T11:10:39;6.40;;;5.80;;
12631;SDS011;6381;45.748;12.106;2023-01-20T11:13:27;4.73;;;4.33;;
12631;SDS011;6381;45.748;12.106;2023-01-20T11:15:57;5.50;;;5.00;;
12631;SDS011;6381;45.748;12.106;2023-01-20T11:18:53;6.03;;;3.80;;
12631;SDS011;6381;45.748;12.106;2023-01-20T11:22:09;4.13;;;3.73;;
12631;SDS011;6381;45.748;12.106;2023-01-20T11:24:40;4.43;;;4.03;;
12631;SDS011;6381;45.748;12.106;2023-01-20T11:27:11;4.40;;;4.00;;
12631;SDS011;6381;45.748;12.106;2023-01-20T11:30:00;4.10;;;3.80;;
12631;SDS011;6381;45.748;12.106;2023-01-20T11:32:34;4.70;;;4.30;;
12631;SDS011;6381;45.748;12.106;2023-01-20T11:35:17;4.37;;;3.97;;
12631;SDS011;6381;45.748;12.106;2023-01-20T11:38:21;6.27;;;5.77;;
12631;SDS011;6381;45.748;12.106;2023-01-20T11:40:51;5.83;;;5.23;;
12631;SDS011;6381;45.748;12.106;2023-01-20T11:43:39;4.67;;;4.13;;
12631;SDS011;6381;45.748;12.106;2023-01-20T11:49:10;4.50;;;4.10;;
12631;SDS011;6381;45.748;12.106;2023-01-20T11:54:31;4.90;;;4.50;;
12631;SDS011;6381;45.748;12.106;2023-01-20T11:57:17;5.10;;;4.60;;
12631;SDS011;6381;45.748;12.106;2023-01-20T11:59:47;5.03;;;4.63;;
12631;SDS011;6381;45.748;12.106;2023-01-20T12:02:37;5.63;;;5.03;;
12631;SDS011;6381;45.748;12.106;2023-01-20T12:05:08;6.33;;;4.60;;
12631;SDS011;6381;45.748;12.106;2023-01-20T12:07:46;4.80;;;4.40;;
12631;SDS011;6381;45.748;12.106;2023-01-20T12:13:11;4.90;;;4.50;;
12631;SDS011;6381;45.748;12.106;2023-01-20T12:15:44;4.87;;;4.47;;
12631;SDS011;6381;45.748;12.106;2023-01-20T12:18:54;5.30;;;4.80;;
12631;SDS011;6381;45.748;12.106;2023-01-20T12:21:29;5.27;;;4.87;;
12631;SDS011;6381;45.748;12.106;2023-01-20T12:24:22;5.50;;;5.00;;
12631;SDS011;6381;45.748;12.106;2023-01-20T12:27:22;5.73;;;5.23;;
12631;SDS011;6381;45.748;12.106;2023-01-20T12:29:54;6.90;;;5.30;;
12631;SDS011;6381;45.748;12.106;2023-01-20T12:32:26;6.13;;;5.53;;
12631;SDS011;6381;45.748;12.106;2023-01-20T12:34:58;6.40;;;5.80;;
12631;SDS011;6381;45.748;12.106;2023-01-20T12:37:28;7.00;;;6.30;;
12631;SDS011;6381;45.748;12.106;2023-01-20T12:40:26;5.83;;;5.33;;
12631;SDS011;6381;45.748;12.106;2023-01-20T12:43:32;6.90;;;5.33;;
12631;SDS011;6381;45.748;12.106;2023-01-20T12:46:32;5.20;;;4.70;;
12631;SDS011;6381;45.748;12.106;2023-01-20T12:49:13;5.20;;;4.70;;
12631;SDS011;6381;45.748;12.106;2023-01-20T12:52:14;5.70;;;5.03;;
12631;SDS011;6381;45.748;12.106;2023-01-20T12:55:10;5.30;;;4.80;;
12631;SDS011;6381;45.748;12.106;2023-01-20T12:57:52;5.53;;;4.93;;
12631;SDS011;6381;45.748;12.106;2023-01-20T13:00:41;5.50;;;5.00;;
12631;SDS011;6381;45.748;12.106;2023-01-20T13:03:36;5.97;;;5.30;;
12631;SDS011;6381;45.748;12.106;2023-01-20T13:06:48;5.83;;;5.33;;
12631;SDS011;6381;45.748;12.106;2023-01-20T13:09:35;5.47;;;4.97;;
12631;SDS011;6381;45.748;12.106;2023-01-20T13:12:26;6.87;;;5.60;;
12631;SDS011;6381;45.748;12.106;2023-01-20T13:18:11;5.73;;;5.23;;
12631;SDS011;6381;45.748;12.106;2023-01-20T13:20:50;5.77;;;5.27;;
12631;SDS011;6381;45.748;12.106;2023-01-20T13:23:22;6.17;;;5.10;;
12631;SDS011;6381;45.748;12.106;2023-01-20T13:25:55;5.47;;;4.90;;
12631;SDS011;6381;45.748;12.106;2023-01-20T13:28:26;5.30;;;4.80;;
12631;SDS011;6381;45.748;12.106;2023-01-20T13:30:56;5.07;;;4.67;;
12631;SDS011;6381;45.748;12.106;2023-01-20T13:33:29;7.07;;;4.73;;
12631;SDS011;6381;45.748;12.106;2023-01-20T13:36:12;5.40;;;4.90;;
12631;SDS011;6381;45.748;12.106;2023-01-20T13:38:43;5.53;;;5.03;;
12631;SDS011;6381;45.748;12.106;2023-01-20T13:44:32;5.97;;;5.40;;
12631;SDS011;6381;45.748;12.106;2023-01-20T13:47:01;5.57;;;5.07;;
12631;SDS011;6381;45.748;12.106;2023-01-20T13:53:12;5.63;;;5.03;;
12631;SDS011;6381;45.748;12.106;2023-01-20T13:56:23;6.63;;;5.10;;
12631;SDS011;6381;45.748;12.106;2023-01-20T13:58:53;6.40;;;5.43;;
12631;SDS011;6381;45.748;12.106;2023-01-20T14:02:07;12.77;;;7.97;;
12631;SDS011;6381;45.748;12.106;2023-01-20T14:05:25;20.70;;;13.53;;
12631;SDS011;6381;45.748;12.106;2023-01-20T14:07:56;12.47;;;8.97;;
12631;SDS011;6381;45.748;12.106;2023-01-20T14:10:43;11.07;;;7.97;;
12631;SDS011;6381;45.748;12.106;2023-01-20T14:13:30;7.97;;;6.23;;
12631;SDS011;6381;45.748;12.106;2023-01-20T14:16:18;12.67;;;5.20;;
12631;SDS011;6381;45.748;12.106;2023-01-20T14:19:26;6.67;;;5.23;;
12631;SDS011;6381;45.748;12.106;2023-01-20T14:22:00;5.50;;;4.97;;
12631;SDS011;6381;45.748;12.106;2023-01-20T14:24:49;5.50;;;5.00;;
12631;SDS011;6381;45.748;12.106;2023-01-20T14:27:19;8.30;;;5.23;;
12631;SDS011;6381;45.748;12.106;2023-01-20T14:29:51;6.17;;;4.60;;
12631;SDS011;6381;45.748;12.106;2023-01-20T14:36:04;8.77;;;5.13;;
12631;SDS011;6381;45.748;12.106;2023-01-20T14:41:45;7.37;;;6.30;;
12631;SDS011;6381;45.748;12.106;2023-01-20T14:44:17;7.03;;;6.33;;
12631;SDS011;6381;45.748;12.106;2023-01-20T14:46:48;9.17;;;6.47;;
12631;SDS011;6381;45.748;12.106;2023-01-20T14:49:38;6.47;;;5.87;;
12631;SDS011;6381;45.748;12.106;2023-01-20T14:55:34;6.53;;;5.93;;
12631;SDS011;6381;45.748;12.106;2023-01-20T14:58:06;6.40;;;5.80;;
12631;SDS011;6381;45.748;12.106;2023-01-20T15:00:54;6.83;;;6.23;;
12631;SDS011;6381;45.748;12.106;2023-01-20T15:03:26;6.53;;;5.80;;
12631;SDS011;6381;45.748;12.106;2023-01-20T15:05:57;7.10;;;6.40;;
12631;SDS011;6381;45.748;12.106;2023-01-20T15:08:46;6.87;;;6.17;;
12631;SDS011;6381;45.748;12.106;2023-01-20T15:20:41;8.70;;;6.50;;
12631;SDS011;6381;45.748;12.106;2023-01-20T15:26:07;6.60;;;6.00;;
12631;SDS011;6381;45.748;12.106;2023-01-20T15:28:54;8.33;;;6.10;;
12631;SDS011;6381;45.748;12.106;2023-01-20T15:31:24;7.13;;;5.40;;
12631;SDS011;6381;45.748;12.106;2023-01-20T15:33:54;6.50;;;4.90;;
12631;SDS011;6381;45.748;12.106;2023-01-20T15:36:40;5.23;;;4.80;;
12631;SDS011;6381;45.748;12.106;2023-01-20T15:39:30;10.23;;;5.23;;
12631;SDS011;6381;45.748;12.106;2023-01-20T15:42:16;8.67;;;4.83;;
12631;SDS011;6381;45.748;12.106;2023-01-20T15:45:03;6.57;;;4.93;;
12631;SDS011;6381;45.748;12.106;2023-01-20T15:47:33;7.37;;;4.90;;
12631;SDS011;6381;45.748;12.106;2023-01-20T15:50:04;9.50;;;6.47;;
12631;SDS011;6381;45.748;12.106;2023-01-20T15:52:38;7.97;;;5.90;;
12631;SDS011;6381;45.748;12.106;2023-01-20T15:55:07;6.27;;;5.27;;
12631;SDS011;6381;45.748;12.106;2023-01-20T15:57:58;5.50;;;5.00;;
12631;SDS011;6381;45.748;12.106;2023-01-20T16:00:27;6.60;;;5.20;;
12631;SDS011;6381;45.748;12.106;2023-01-20T16:03:32;7.07;;;5.07;;
12631;SDS011;6381;45.748;12.106;2023-01-20T16:06:29;19.50;;;17.53;;
12631;SDS011;6381;45.748;12.106;2023-01-20T16:09:00;8.67;;;7.83;;
12631;SDS011;6381;45.748;12.106;2023-01-20T16:11:47;7.93;;;7.13;;
12631;SDS011;6381;45.748;12.106;2023-01-20T16:14:16;6.80;;;6.20;;
12631;SDS011;6381;45.748;12.106;2023-01-20T16:16:45;7.40;;;6.03;;
12631;SDS011;6381;45.748;12.106;2023-01-20T16:19:14;7.87;;;7.03;;
12631;SDS011;6381;45.748;12.106;2023-01-20T16:22:03;8.03;;;7.23;;
12631;SDS011;6381;45.748;12.106;2023-01-20T16:24:34;6.70;;;6.00;;
12631;SDS011;6381;45.748;12.106;2023-01-20T16:27:03;9.17;;;7.20;;
12631;SDS011;6381;45.748;12.106;2023-01-20T16:32:46;10.03;;;9.03;;
12631;SDS011;6381;45.748;12.106;2023-01-20T16:35:19;12.43;;;10.53;;
12631;SDS011;6381;45.748;12.106;2023-01-20T16:38:24;10.50;;;9.40;;
12631;SDS011;6381;45.748;12.106;2023-01-20T16:41:12;13.30;;;9.43;;
12631;SDS011;6381;45.748;12.106;2023-01-20T16:43:43;11.23;;;10.03;;
12631;SDS011;6381;45.748;12.106;2023-01-20T16:46:12;14.13;;;9.40;;
12631;SDS011;6381;45.748;12.106;2023-01-20T16:48:42;16.03;;;8.97;;
12631;SDS011;6381;45.748;12.106;2023-01-20T16:54:17;17.43;;;12.67;;
12631;SDS011;6381;45.748;12.106;2023-01-20T16:56:46;20.97;;;15.50;;
12631;SDS011;6381;45.748;12.106;2023-01-20T16:59:33;20.97;;;15.27;;
12631;SDS011;6381;45.748;12.106;2023-01-20T17:05:28;39.67;;;24.60;;
12631;SDS011;6381;45.748;12.106;2023-01-20T17:11:22;43.30;;;27.17;;
12631;SDS011;6381;45.748;12.106;2023-01-20T17:13:53;69.43;;;43.30;;
12631;SDS011;6381;45.748;12.106;2023-01-20T17:19:11;41.97;;;25.37;;
12631;SDS011;6381;45.748;12.106;2023-01-20T17:21:43;62.00;;;38.30;;
12631;SDS011;6381;45.748;12.106;2023-01-20T17:27:06;69.97;;;43.50;;
12631;SDS011;6381;45.748;12.106;2023-01-20T17:29:35;82.23;;;43.47;;
12631;SDS011;6381;45.748;12.106;2023-01-20T17:32:04;84.90;;;50.30;;
12631;SDS011;6381;45.748;12.106;2023-01-20T17:34:32;96.70;;;55.60;;
12631;SDS011;6381;45.748;12.106;2023-01-20T17:37:01;98.37;;;57.83;;
12631;SDS011;6381;45.748;12.106;2023-01-20T17:39:30;86.43;;;49.33;;
12631;SDS011;6381;45.748;12.106;2023-01-20T17:41:59;88.37;;;52.13;;
12631;SDS011;6381;45.748;12.106;2023-01-20T17:44:50;80.57;;;48.17;;
12631;SDS011;6381;45.748;12.106;2023-01-20T17:50:42;59.03;;;38.47;;
12631;SDS011;6381;45.748;12.106;2023-01-20T17:53:11;60.07;;;39.07;;
12631;SDS011;6381;45.748;12.106;2023-01-20T17:58:38;51.57;;;34.60;;
12631;SDS011;6381;45.748;12.106;2023-01-20T18:07:19;43.57;;;31.33;;
12631;SDS011;6381;45.748;12.106;2023-01-20T18:10:06;39.57;;;27.07;;
12631;SDS011;6381;45.748;12.106;2023-01-20T18:13:12;33.20;;;24.77;;
12631;SDS011;6381;45.748;12.106;2023-01-20T18:15:41;40.03;;;26.03;;
12631;SDS011;6381;45.748;12.106;2023-01-20T18:18:12;41.77;;;27.63;;
12631;SDS011;6381;45.748;12.106;2023-01-20T18:21:06;52.33;;;35.43;;
12631;SDS011;6381;45.748;12.106;2023-01-20T18:26:41;66.73;;;46.50;;
12631;SDS011;6381;45.748;12.106;2023-01-20T18:29:12;52.37;;;37.27;;
12631;SDS011;6381;45.748;12.106;2023-01-20T18:31:42;42.73;;;31.77;;
12631;SDS011;6381;45.748;12.106;2023-01-20T18:37:35;35.73;;;27.47;;
12631;SDS011;6381;45.748;12.106;2023-01-20T18:40:59;33.70;;;25.80;;
12631;SDS011;6381;45.748;12.106;2023-01-20T18:43:47;32.17;;;27.03;;
12631;SDS011;6381;45.748;12.106;2023-01-20T18:46:16;44.50;;;35.27;;
12631;SDS011;6381;45.748;12.106;2023-01-20T18:48:46;41.07;;;35.77;;
12631;SDS011;6381;45.748;12.106;2023-01-20T18:54:23;48.90;;;40.10;;
12631;SDS011;6381;45.748;12.106;2023-01-20T18:56:55;46.80;;;41.53;;
12631;SDS011;6381;45.748;12.106;2023-01-20T18:59:24;54.10;;;48.50;;
12631;SDS011;6381;45.748;12.106;2023-01-20T19:01:53;47.50;;;42.40;;
12631;SDS011;6381;45.748;12.106;2023-01-20T19:04:24;45.37;;;40.73;;
12631;SDS011;6381;45.748;12.106;2023-01-20T19:06:54;71.97;;;57.57;;
12631;SDS011;6381;45.748;12.106;2023-01-20T19:09:44;78.13;;;62.37;;
12631;SDS011;6381;45.748;12.106;2023-01-20T19:12:32;42.60;;;34.63;;
12631;SDS011;6381;45.748;12.106;2023-01-20T19:15:01;50.80;;;40.97;;
12631;SDS011;6381;45.748;12.106;2023-01-20T19:17:30;51.60;;;41.20;;
12631;SDS011;6381;45.748;12.106;2023-01-20T19:19:59;43.20;;;38.30;;
12631;SDS011;6381;45.748;12.106;2023-01-20T19:22:48;37.50;;;33.50;;
12631;SDS011;6381;45.748;12.106;2023-01-20T19:25:17;40.87;;;33.30;;
12631;SDS011;6381;45.748;12.106;2023-01-20T19:30:50;34.27;;;28.03;;
12631;SDS011;6381;45.748;12.106;2023-01-20T19:33:19;38.33;;;33.03;;
12631;SDS011;6381;45.748;12.106;2023-01-20T19:38:41;46.93;;;41.73;;
12631;SDS011;6381;45.748;12.106;2023-01-20T19:41:47;55.10;;;39.03;;
12631;SDS011;6381;45.748;12.106;2023-01-20T19:44:34;49.67;;;39.53;;
12631;SDS011;6381;45.748;12.106;2023-01-20T19:49:50;50.23;;;40.30;;